createdAt,value
2022-08-01T00:00:27.210Z,96614.25
2022-08-01T00:01:28.786Z,96610.81
2022-08-01T00:02:32.073Z,96615.94
2022-08-01T00:03:33.852Z,96604.25
2022-08-01T00:04:35.432Z,96604.25
2022-08-01T00:05:37.068Z,96614.81
2022-08-01T00:06:38.658Z,96606.63
2022-08-01T00:07:40.249Z,96606.63
2022-08-01T00:08:41.835Z,96608.97
2022-08-01T00:09:43.511Z,96608.31
2022-08-01T00:10:45.130Z,96611.03
2022-08-01T00:11:46.735Z,96616.88
2022-08-01T00:13:01.387Z,96616.88
2022-08-01T00:14:03.654Z,96623.13
2022-08-01T00:15:07.787Z,96622.34
2022-08-01T00:16:09.659Z,96623.50
2022-08-01T00:17:11.225Z,96628.13
2022-08-01T00:18:12.790Z,96627.69
2022-08-01T00:19:14.532Z,96633.97
2022-08-01T00:20:16.518Z,96630.91
2022-08-01T00:21:18.992Z,96630.53
2022-08-01T00:22:20.690Z,96630.63
2022-08-01T00:23:22.283Z,96621.69
2022-08-01T00:24:24.007Z,96624.81
2022-08-01T00:25:34.055Z,96620.81
2022-08-01T00:26:36.281Z,96627.03
2022-08-01T00:27:38.091Z,96620.09
2022-08-01T00:28:40.000Z,96619.06
2022-08-01T00:30:12.696Z,96620.25
2022-08-01T00:31:03.648Z,96614.06
2022-08-01T00:32:05.922Z,96614.84
2022-08-01T00:33:07.701Z,96617.56
2022-08-01T00:34:09.353Z,96613.31
2022-08-01T00:35:11.470Z,96611.03
2022-08-01T00:36:13.297Z,96611.75
2022-08-01T00:37:16.095Z,96614.09
2022-08-01T00:38:17.879Z,96612.22
2022-08-01T00:39:19.452Z,96616.16
2022-08-01T00:40:21.307Z,96620.03
2022-08-01T00:41:22.889Z,96607.19
2022-08-01T00:42:24.523Z,96613.47
2022-08-01T00:43:26.091Z,96616.19
2022-08-01T00:44:28.252Z,96615.53
2022-08-01T00:45:29.887Z,96609.44
2022-08-01T00:46:31.550Z,96616.84
2022-08-01T00:47:33.176Z,96610.66
2022-08-01T00:48:34.788Z,96614.13
2022-08-01T00:49:36.932Z,96609.44
2022-08-01T00:50:39.224Z,96621.53
2022-08-01T00:51:41.658Z,96614.50
2022-08-01T00:52:44.176Z,96620.72
2022-08-01T00:53:54.056Z,96615.28
2022-08-01T00:54:56.639Z,96623.84
2022-08-01T00:55:58.371Z,96623.03
2022-08-01T00:57:00.301Z,96616.75
2022-08-01T00:58:05.979Z,96622.91
2022-08-01T00:59:09.717Z,96624.41
2022-08-01T01:00:12.086Z,96618.91
2022-08-01T01:01:13.978Z,96620.50
2022-08-01T01:02:16.081Z,96620.47
2022-08-01T01:03:17.753Z,96626.63
2022-08-01T01:04:19.363Z,96623.47
2022-08-01T01:05:21.356Z,96617.22
2022-08-01T01:07:09.940Z,96617.13
2022-08-01T01:08:27.452Z,96613.50
2022-08-01T01:09:31.532Z,96621.19
2022-08-01T01:10:41.581Z,96621.25
2022-08-01T01:12:01.418Z,96623.78
2022-08-01T01:13:07.826Z,96624.22
2022-08-01T01:14:24.725Z,96622.00
2022-08-01T01:15:42.527Z,96621.56
2022-08-01T01:16:46.571Z,96616.41
2022-08-01T01:17:56.451Z,96613.97
2022-08-01T01:19:03.962Z,96612.34
2022-08-01T01:20:07.777Z,96611.91
2022-08-01T01:21:31.988Z,96619.22
2022-08-01T01:22:47.226Z,96621.94
2022-08-01T01:24:08.624Z,96619.28
2022-08-01T01:25:37.876Z,96621.56
2022-08-01T01:27:07.022Z,96621.56
2022-08-01T01:28:28.085Z,96623.06
2022-08-01T01:29:59.874Z,96626.16
2022-08-01T01:30:59.315Z,96619.84
2022-08-01T01:32:40.901Z,96619.81
2022-08-01T01:33:47.055Z,96620.16
2022-08-01T01:34:53.829Z,96619.88
2022-08-01T01:36:00.403Z,96619.50
2022-08-01T01:37:04.217Z,96615.97
2022-08-01T01:38:10.590Z,96616.06
2022-08-01T01:39:15.116Z,96617.59
2022-08-01T01:40:18.941Z,96614.84
2022-08-01T01:41:21.963Z,96614.50
2022-08-01T01:42:26.647Z,96617.66
2022-08-01T01:43:33.519Z,96619.63
2022-08-01T01:44:37.527Z,96617.50
2022-08-01T01:45:41.203Z,96620.88
2022-08-01T01:46:43.765Z,96620.63
2022-08-01T01:47:46.956Z,96625.78
2022-08-01T01:48:49.750Z,96626.28
2022-08-01T01:49:53.687Z,96619.41
2022-08-01T01:50:57.674Z,96624.97
2022-08-01T01:52:02.746Z,96615.69
2022-08-01T01:53:06.827Z,96625.84
2022-08-01T01:54:17.768Z,96624.69
2022-08-01T01:55:22.015Z,96617.72
2022-08-01T01:56:25.076Z,96619.69
2022-08-01T01:57:28.796Z,96621.25
2022-08-01T01:58:33.775Z,96614.28
2022-08-01T01:59:39.016Z,96617.00
2022-08-01T02:00:43.300Z,96617.03
2022-08-01T02:02:08.776Z,96618.16
2022-08-01T02:03:13.271Z,96618.97
2022-08-01T02:04:15.449Z,96622.09
2022-08-01T02:05:17.153Z,96617.84
2022-08-01T02:06:19.456Z,96615.91
2022-08-01T02:07:25.031Z,96615.91
2022-08-01T02:08:28.145Z,96616.66
2022-08-01T02:09:34.975Z,96623.66
2022-08-01T02:10:38.507Z,96622.91
2022-08-01T02:12:08.274Z,96619.81
2022-08-01T02:13:07.530Z,96620.59
2022-08-01T02:14:11.261Z,96624.88
2022-08-01T02:15:14.226Z,96626.00
2022-08-01T02:16:18.168Z,96626.03
2022-08-01T02:17:21.747Z,96621.78
2022-08-01T02:18:23.973Z,96618.25
2022-08-01T02:19:26.020Z,96626.00
2022-08-01T02:21:45.535Z,96627.91
2022-08-01T02:23:12.446Z,96618.22
2022-08-01T02:24:20.370Z,96618.25
2022-08-01T02:25:40.146Z,96620.19
2022-08-01T02:27:11.645Z,96615.91
2022-08-01T02:28:35.006Z,96614.28
2022-08-01T02:29:48.009Z,96608.84
2022-08-01T02:30:50.916Z,96606.47
2022-08-01T02:31:55.646Z,96611.13
2022-08-01T02:33:03.150Z,96611.09
2022-08-01T02:34:08.106Z,96611.13
2022-08-01T02:35:19.195Z,96614.19
2022-08-01T02:36:30.191Z,96612.59
2022-08-01T02:37:37.360Z,96611.81
2022-08-01T02:38:47.556Z,96618.34
2022-08-01T02:39:53.516Z,96616.38
2022-08-01T02:40:58.944Z,96611.66
2022-08-01T02:42:05.939Z,96614.34
2022-08-01T02:43:10.258Z,96620.91
2022-08-01T02:44:19.280Z,96618.53
2022-08-01T02:45:25.415Z,96617.72
2022-08-01T02:46:40.789Z,96619.66
2022-08-01T02:47:43.980Z,96617.41
2022-08-01T02:48:46.652Z,96620.16
2022-08-01T02:49:53.341Z,96618.63
2022-08-01T02:50:59.591Z,96620.66
2022-08-01T02:52:05.236Z,96620.28
2022-08-01T02:53:09.084Z,96617.25
2022-08-01T02:54:12.498Z,96618.88
2022-08-01T02:55:15.104Z,96616.94
2022-08-01T02:56:19.491Z,96618.94
2022-08-01T02:57:22.533Z,96618.56
2022-08-01T02:58:29.260Z,96614.72
2022-08-01T02:59:34.996Z,96616.69
2022-08-01T03:00:37.332Z,96621.34
2022-08-01T03:01:42.030Z,96626.03
2022-08-01T03:02:45.639Z,96626.03
2022-08-01T03:03:47.919Z,96621.38
2022-08-01T03:04:56.609Z,96622.13
2022-08-01T03:06:00.324Z,96622.91
2022-08-01T03:07:05.709Z,96626.00
2022-08-01T03:08:14.779Z,96619.38
2022-08-01T03:09:17.934Z,96621.34
2022-08-01T03:10:20.506Z,96619.00
2022-08-01T03:11:25.148Z,96619.38
2022-08-01T03:12:30.633Z,96619.75
2022-08-01T03:13:34.220Z,96618.94
2022-08-01T03:14:39.362Z,96613.88
2022-08-01T03:15:44.332Z,96617.31
2022-08-01T03:16:47.162Z,96621.22
2022-08-01T03:17:50.774Z,96618.09
2022-08-01T03:18:55.948Z,96620.75
2022-08-01T03:19:59.867Z,96620.34
2022-08-01T03:21:02.577Z,96627.41
2022-08-01T03:22:08.681Z,96625.09
2022-08-01T03:23:12.489Z,96628.19
2022-08-01T03:24:15.543Z,96621.22
2022-08-01T03:25:18.675Z,96620.88
2022-08-01T03:26:20.685Z,96630.22
2022-08-01T03:27:25.293Z,96622.44
2022-08-01T03:28:27.920Z,96627.03
2022-08-01T03:29:33.345Z,96628.97
2022-08-01T03:30:37.862Z,96629.72
2022-08-01T03:31:43.857Z,96635.53
2022-08-01T03:32:45.643Z,96633.59
2022-08-01T03:33:47.253Z,96631.28
2022-08-01T03:34:49.030Z,96634.38
2022-08-01T03:35:55.027Z,96634.78
2022-08-01T03:37:31.916Z,96638.28
2022-08-01T03:38:39.139Z,96637.88
2022-08-01T03:39:51.416Z,96642.53
2022-08-01T03:41:16.933Z,96636.66
2022-08-01T03:42:21.809Z,96635.91
2022-08-01T03:43:39.310Z,96637.88
2022-08-01T03:44:42.360Z,96629.75
2022-08-01T03:45:53.282Z,96639.16
2022-08-01T03:47:02.651Z,96640.75
2022-08-01T03:48:10.438Z,96632.97
2022-08-01T03:49:18.166Z,96636.44
2022-08-01T03:50:24.832Z,96639.16
2022-08-01T03:51:26.580Z,96639.13
2022-08-01T03:52:30.561Z,96643.00
2022-08-01T03:53:34.410Z,96638.31
2022-08-01T03:54:39.816Z,96639.91
2022-08-01T03:55:44.740Z,96640.28
2022-08-01T03:56:48.883Z,96635.25
2022-08-01T03:57:51.436Z,96642.19
2022-08-01T03:58:53.491Z,96646.47
2022-08-01T03:59:56.188Z,96640.59
2022-08-01T04:00:58.803Z,96638.97
2022-08-01T04:02:00.803Z,96647.50
2022-08-01T04:03:02.969Z,96648.25
2022-08-01T04:04:06.841Z,96647.00
2022-08-01T04:05:08.965Z,96637.25
2022-08-01T04:06:11.645Z,96644.16
2022-08-01T04:07:24.810Z,96641.00
2022-08-01T04:08:36.507Z,96651.84
2022-08-01T04:09:38.082Z,96646.00
2022-08-01T04:10:39.962Z,96646.38
2022-08-01T04:12:02.066Z,96657.22
2022-08-01T04:13:13.821Z,96655.59
2022-08-01T04:14:15.999Z,96653.63
2022-08-01T04:15:17.861Z,96660.25
2022-08-01T04:16:19.651Z,96657.13
2022-08-01T04:17:21.576Z,96657.59
2022-08-01T04:18:23.235Z,96641.63
2022-08-01T04:19:24.988Z,96652.44
2022-08-01T04:20:26.638Z,96644.22
2022-08-01T04:21:32.362Z,96650.81
2022-08-01T04:22:37.311Z,96652.34
2022-08-01T04:23:42.175Z,96659.28
2022-08-01T04:24:54.680Z,96649.06
2022-08-01T04:26:00.444Z,96663.34
2022-08-01T04:27:03.454Z,96655.91
2022-08-01T04:28:09.249Z,96659.13
2022-08-01T04:29:13.043Z,96653.81
2022-08-01T04:30:17.907Z,96657.66
2022-08-01T04:31:23.698Z,96659.81
2022-08-01T04:32:28.933Z,96650.34
2022-08-01T04:33:32.051Z,96657.47
2022-08-01T04:34:34.785Z,96664.28
2022-08-01T04:36:03.705Z,96659.88
2022-08-01T04:37:02.043Z,96664.75
2022-08-01T04:38:05.168Z,96658.06
2022-08-01T04:39:07.150Z,96668.84
2022-08-01T04:40:10.023Z,96672.63
2022-08-01T04:41:14.078Z,96667.63
2022-08-01T04:42:16.899Z,96661.59
2022-08-01T04:43:26.887Z,96662.19
2022-08-01T04:44:32.574Z,96658.19
2022-08-01T04:45:36.416Z,96667.72
2022-08-01T04:46:38.747Z,96664.84
2022-08-01T04:47:41.747Z,96672.88
2022-08-01T04:48:43.613Z,96670.66
2022-08-01T04:49:48.963Z,96673.50
2022-08-01T04:50:51.309Z,96670.81
2022-08-01T04:52:01.109Z,96675.16
2022-08-01T04:53:04.099Z,96669.78
2022-08-01T04:54:08.387Z,96672.38
2022-08-01T04:55:11.128Z,96668.31
2022-08-01T04:56:16.369Z,96672.84
2022-08-01T04:57:17.988Z,96670.47
2022-08-01T04:58:19.596Z,96675.31
2022-08-01T04:59:39.740Z,96667.31
2022-08-01T05:00:41.378Z,96673.88
2022-08-01T05:01:43.020Z,96668.97
2022-08-01T05:02:44.916Z,96664.97
2022-08-01T05:03:46.485Z,96673.63
2022-08-01T05:04:48.465Z,96671.22
2022-08-01T05:05:50.142Z,96675.22
2022-08-01T05:06:51.769Z,96670.88
2022-08-01T05:07:53.343Z,96674.31
2022-08-01T05:08:54.969Z,96665.22
2022-08-01T05:09:56.573Z,96662.06
2022-08-01T05:10:58.186Z,96666.97
2022-08-01T05:12:02.698Z,96665.50
2022-08-01T05:13:04.438Z,96672.34
2022-08-01T05:14:07.640Z,96671.03
2022-08-01T05:15:15.192Z,96673.22
2022-08-01T05:16:17.991Z,96670.44
2022-08-01T05:17:19.622Z,96671.91
2022-08-01T05:18:26.065Z,96675.38
2022-08-01T05:19:32.839Z,96675.78
2022-08-01T05:20:34.469Z,96678.66
2022-08-01T05:21:36.606Z,96677.56
2022-08-01T05:22:38.860Z,96686.13
2022-08-01T05:23:43.070Z,96686.88
2022-08-01T05:24:45.397Z,96683.91
2022-08-01T05:25:56.858Z,96685.63
2022-08-01T05:27:00.730Z,96683.56
2022-08-01T05:28:03.756Z,96678.84
2022-08-01T05:29:05.475Z,96670.59
2022-08-01T05:30:10.744Z,96677.19
2022-08-01T05:31:12.410Z,96673.16
2022-08-01T05:32:14.055Z,96680.47
2022-08-01T05:33:15.670Z,96677.56
2022-08-01T05:34:17.354Z,96680.69
2022-08-01T05:35:18.990Z,96683.78
2022-08-01T05:36:20.573Z,96679.94
2022-08-01T05:37:22.237Z,96682.50
2022-08-01T05:38:23.856Z,96674.50
2022-08-01T05:39:25.462Z,96675.53
2022-08-01T05:40:27.079Z,96674.03
2022-08-01T05:41:28.794Z,96669.47
2022-08-01T05:42:30.930Z,96674.00
2022-08-01T05:43:32.636Z,96676.47
2022-08-01T05:44:34.556Z,96674.00
2022-08-01T05:45:36.156Z,96680.75
2022-08-01T05:46:38.599Z,96673.69
2022-08-01T05:47:43.087Z,96675.16
2022-08-01T05:48:44.781Z,96665.06
2022-08-01T05:49:46.785Z,96665.59
2022-08-01T05:50:48.851Z,96674.84
2022-08-01T05:51:50.641Z,96674.06
2022-08-01T05:52:52.248Z,96667.22
2022-08-01T05:53:54.871Z,96673.81
2022-08-01T05:54:56.555Z,96671.09
2022-08-01T05:55:58.132Z,96672.50
2022-08-01T05:57:02.610Z,96672.75
2022-08-01T05:58:04.263Z,96670.63
2022-08-01T05:59:05.929Z,96675.69
2022-08-01T06:00:08.323Z,96673.09
2022-08-01T06:01:09.971Z,96666.38
2022-08-01T06:02:11.759Z,96674.19
2022-08-01T06:03:13.961Z,96671.09
2022-08-01T06:04:15.538Z,96667.81
2022-08-01T06:05:19.354Z,96671.94
2022-08-01T06:06:25.560Z,96657.16
2022-08-01T06:07:27.500Z,96662.44
2022-08-01T06:08:29.710Z,96658.19
2022-08-01T06:09:31.946Z,96667.81
2022-08-01T06:10:34.376Z,96664.25
2022-08-01T06:11:36.426Z,96656.56
2022-08-01T06:12:38.892Z,96659.94
2022-08-01T06:13:45.601Z,96654.03
2022-08-01T06:14:50.174Z,96650.94
2022-08-01T06:15:56.378Z,96653.06
2022-08-01T06:16:59.216Z,96656.41
2022-08-01T06:18:01.466Z,96654.16
2022-08-01T06:19:03.230Z,96654.91
2022-08-01T06:20:07.352Z,96658.63
2022-08-01T06:21:10.073Z,96654.44
2022-08-01T06:22:11.807Z,96655.06
2022-08-01T06:23:31.668Z,96648.50
2022-08-01T06:24:34.523Z,96645.94
2022-08-01T06:25:36.416Z,96653.16
2022-08-01T06:26:38.271Z,96647.50
2022-08-01T06:27:40.144Z,96641.06
2022-08-01T06:28:42.203Z,96644.59
2022-08-01T06:29:53.638Z,96643.19
2022-08-01T06:30:56.213Z,96639.84
2022-08-01T06:31:57.852Z,96644.03
2022-08-01T06:33:01.123Z,96642.81
2022-08-01T06:34:03.284Z,96640.06
2022-08-01T06:35:05.463Z,96627.31
2022-08-01T06:36:07.583Z,96634.72
2022-08-01T06:37:10.104Z,96634.72
2022-08-01T06:38:12.566Z,96630.72
2022-08-01T06:39:14.237Z,96628.56
2022-08-01T06:40:17.560Z,96626.09
2022-08-01T06:41:20.064Z,96629.47
2022-08-01T06:42:21.770Z,96621.78
2022-08-01T06:43:24.196Z,96631.78
2022-08-01T06:44:25.956Z,96625.63
2022-08-01T06:45:28.092Z,96620.00
2022-08-01T06:46:32.180Z,96623.06
2022-08-01T06:47:34.495Z,96620.88
2022-08-01T06:48:40.346Z,96619.34
2022-08-01T06:49:44.199Z,96623.00
2022-08-01T06:50:46.163Z,96624.53
2022-08-01T06:51:47.753Z,96616.81
2022-08-01T06:52:49.845Z,96619.34
2022-08-01T06:53:52.515Z,96612.56
2022-08-01T06:54:55.045Z,96622.53
2022-08-01T06:55:57.298Z,96618.03
2022-08-01T06:56:59.354Z,96620.50
2022-08-01T06:58:01.745Z,96617.50
2022-08-01T06:59:03.504Z,96608.09
2022-08-01T07:00:12.455Z,96615.00
2022-08-01T07:01:14.390Z,96610.28
2022-08-01T07:02:16.511Z,96611.78
2022-08-01T07:03:18.144Z,96613.06
2022-08-01T07:04:20.289Z,96607.22
2022-08-01T07:05:24.491Z,96610.59
2022-08-01T07:06:28.353Z,96607.28
2022-08-01T07:07:30.448Z,96611.28
2022-08-01T07:08:32.391Z,96602.00
2022-08-01T07:09:34.744Z,96597.63
2022-08-01T07:10:37.013Z,96607.97
2022-08-01T07:11:38.890Z,96614.13
2022-08-01T07:12:42.887Z,96607.34
2022-08-01T07:13:46.970Z,96605.41
2022-08-01T07:14:49.687Z,96611.66
2022-08-01T07:15:52.967Z,96603.84
2022-08-01T07:16:55.190Z,96603.97
2022-08-01T07:17:58.282Z,96607.97
2022-08-01T07:19:00.075Z,96604.72
2022-08-01T07:20:02.952Z,96602.31
2022-08-01T07:21:04.780Z,96611.66
2022-08-01T07:22:06.947Z,96606.53
2022-08-01T07:23:09.402Z,96599.91
2022-08-01T07:24:15.522Z,96611.16
2022-08-01T07:25:17.127Z,96609.16
2022-08-01T07:26:18.895Z,96603.16
2022-08-01T07:27:25.636Z,96602.59
2022-08-01T07:28:28.960Z,96603.03
2022-08-01T07:29:31.054Z,96594.97
2022-08-01T07:30:32.864Z,96601.09
2022-08-01T07:31:35.296Z,96592.00
2022-08-01T07:32:37.277Z,96597.72
2022-08-01T07:33:47.935Z,96593.28
2022-08-01T07:34:52.122Z,96596.63
2022-08-01T07:35:53.848Z,96604.66
2022-08-01T07:36:55.764Z,96593.19
2022-08-01T07:37:57.433Z,96597.53
2022-08-01T07:38:59.864Z,96588.06
2022-08-01T07:40:05.402Z,96587.28
2022-08-01T07:41:07.073Z,96586.91
2022-08-01T07:42:08.894Z,96593.94
2022-08-01T07:43:10.732Z,96586.63
2022-08-01T07:44:12.459Z,96586.25
2022-08-01T07:45:15.248Z,96590.88
2022-08-01T07:46:17.426Z,96581.91
2022-08-01T07:47:26.167Z,96582.78
2022-08-01T07:48:31.134Z,96583.47
2022-08-01T07:49:37.768Z,96582.84
2022-08-01T07:50:41.426Z,96584.84
2022-08-01T07:51:43.236Z,96582.22
2022-08-01T07:53:05.454Z,96590.81
2022-08-01T07:54:08.118Z,96585.28
2022-08-01T07:55:11.368Z,96576.69
2022-08-01T07:56:12.937Z,96589.44
2022-08-01T07:57:14.569Z,96583.44
2022-08-01T07:58:17.073Z,96575.16
2022-08-01T07:59:24.071Z,96579.69
2022-08-01T08:00:29.488Z,96582.63
2022-08-01T08:01:31.495Z,96586.91
2022-08-01T08:02:33.433Z,96577.88
2022-08-01T08:03:35.495Z,96578.03
2022-08-01T08:04:37.182Z,96580.66
2022-08-01T08:05:57.639Z,96580.69
2022-08-01T08:07:00.723Z,96576.09
2022-08-01T08:08:05.426Z,96572.41
2022-08-01T08:09:06.988Z,96580.09
2022-08-01T08:10:09.323Z,96569.34
2022-08-01T08:11:11.530Z,96568.22
2022-08-01T08:12:13.299Z,96563.13
2022-08-01T08:13:14.893Z,96564.03
2022-08-01T08:14:19.689Z,96563.75
2022-08-01T08:15:21.429Z,96568.69
2022-08-01T08:16:23.409Z,96560.75
2022-08-01T08:17:26.473Z,96564.44
2022-08-01T08:18:28.477Z,96560.75
2022-08-01T08:19:37.336Z,96559.22
2022-08-01T08:20:40.298Z,96560.91
2022-08-01T08:21:42.472Z,96559.69
2022-08-01T08:22:44.223Z,96562.44
2022-08-01T08:24:04.836Z,96555.22
2022-08-01T08:25:09.137Z,96563.06
2022-08-01T08:26:13.866Z,96562.00
2022-08-01T08:27:16.205Z,96561.06
2022-08-01T08:28:17.874Z,96561.97
2022-08-01T08:29:19.848Z,96550.31
2022-08-01T08:30:21.713Z,96550.47
2022-08-01T08:31:50.746Z,96557.69
2022-08-01T08:32:45.528Z,96557.97
2022-08-01T08:33:47.125Z,96559.81
2022-08-01T08:34:48.721Z,96557.47
2022-08-01T08:35:53.629Z,96545.03
2022-08-01T08:36:57.309Z,96546.88
2022-08-01T08:38:00.595Z,96559.44
2022-08-01T08:39:04.159Z,96555.44
2022-08-01T08:40:06.644Z,96549.63
2022-08-01T08:41:09.234Z,96552.53
2022-08-01T08:42:12.907Z,96545.81
2022-08-01T08:43:16.914Z,96561.75
2022-08-01T08:44:21.001Z,96554.25
2022-08-01T08:45:22.746Z,96551.78
2022-08-01T08:46:52.830Z,96543.50
2022-08-01T08:47:55.743Z,96552.53
2022-08-01T08:48:57.561Z,96547.34
2022-08-01T08:50:01.376Z,96549.78
2022-08-01T08:51:03.270Z,96545.97
2022-08-01T08:52:08.767Z,96553.31
2022-08-01T08:53:12.943Z,96555.78
2022-08-01T08:54:20.654Z,96548.75
2022-08-01T08:55:24.166Z,96554.78
2022-08-01T08:56:28.365Z,96551.19
2022-08-01T08:57:30.270Z,96547.69
2022-08-01T08:58:35.236Z,96545.97
2022-08-01T08:59:38.390Z,96549.34
2022-08-01T09:00:41.717Z,96540.19
2022-08-01T09:01:43.714Z,96537.09
2022-08-01T09:02:47.677Z,96546.63
2022-08-01T09:03:49.471Z,96554.31
2022-08-01T09:04:51.762Z,96549.72
2022-08-01T09:05:54.120Z,96549.84
2022-08-01T09:06:55.968Z,96545.09
2022-08-01T09:07:57.785Z,96540.81
2022-08-01T09:09:00.362Z,96539.25
2022-08-01T09:10:02.230Z,96541.25
2022-08-01T09:11:04.949Z,96536.78
2022-08-01T09:12:06.790Z,96536.81
2022-08-01T09:13:13.238Z,96541.88
2022-08-01T09:14:23.416Z,96542.50
2022-08-01T09:15:39.505Z,96545.09
2022-08-01T09:16:48.603Z,96541.25
2022-08-01T09:17:51.139Z,96543.41
2022-08-01T09:18:53.822Z,96532.97
2022-08-01T09:19:57.723Z,96542.63
2022-08-01T09:21:06.968Z,96536.34
2022-08-01T09:22:11.698Z,96541.41
2022-08-01T09:23:35.547Z,96534.97
2022-08-01T09:24:38.476Z,96526.66
2022-08-01T09:25:53.825Z,96531.88
2022-08-01T09:27:00.033Z,96531.28
2022-08-01T09:28:06.846Z,96522.06
2022-08-01T09:29:38.222Z,96527.00
2022-08-01T09:30:40.152Z,96514.28
2022-08-01T09:31:47.704Z,96520.22
2022-08-01T09:33:11.118Z,96520.38
2022-08-01T09:34:32.195Z,96520.38
2022-08-01T09:35:43.957Z,96516.06
2022-08-01T09:36:57.318Z,96519.59
2022-08-01T09:38:21.786Z,96513.19
2022-08-01T09:39:24.778Z,96516.41
2022-08-01T09:40:26.401Z,96511.78
2022-08-01T09:41:39.903Z,96511.31
2022-08-01T09:42:42.421Z,96507.94
2022-08-01T09:43:52.147Z,96513.16
2022-08-01T09:44:55.734Z,96507.31
2022-08-01T09:45:58.514Z,96505.78
2022-08-01T09:47:00.340Z,96501.81
2022-08-01T09:48:10.823Z,96510.13
2022-08-01T09:49:12.738Z,96508.59
2022-08-01T09:50:14.837Z,96509.53
2022-08-01T09:51:59.816Z,96507.06
2022-08-01T09:53:01.446Z,96502.59
2022-08-01T09:54:07.708Z,96507.06
2022-08-01T09:55:10.535Z,96506.47
2022-08-01T09:56:13.510Z,96496.34
2022-08-01T09:57:17.040Z,96503.53
2022-08-01T09:58:18.899Z,96499.41
2022-08-01T09:59:21.106Z,96500.63
2022-08-01T10:00:44.205Z,96499.41
2022-08-01T10:01:48.364Z,96488.81
2022-08-01T10:02:50.010Z,96490.78
2022-08-01T10:04:11.397Z,96494.97
2022-08-01T10:05:20.979Z,96492.19
2022-08-01T10:06:24.786Z,96493.72
2022-08-01T10:07:27.707Z,96490.22
2022-08-01T10:08:48.824Z,96487.72
2022-08-01T10:09:51.408Z,96485.28
2022-08-01T10:11:13.069Z,96482.50
2022-08-01T10:12:21.362Z,96483.78
2022-08-01T10:13:23.061Z,96479.16
2022-08-01T10:14:26.755Z,96481.75
2022-08-01T10:15:37.436Z,96481.13
2022-08-01T10:16:40.337Z,96473.91
2022-08-01T10:17:50.508Z,96465.19
2022-08-01T10:18:55.019Z,96471.78
2022-08-01T10:20:01.415Z,96463.22
2022-08-01T10:21:08.594Z,96468.88
2022-08-01T10:22:18.885Z,96478.84
2022-08-01T10:23:20.468Z,96460.91
2022-08-01T10:24:23.639Z,96458.00
2022-08-01T10:25:42.830Z,96470.09
2022-08-01T10:26:48.482Z,96467.19
2022-08-01T10:27:51.340Z,96467.78
2022-08-01T10:28:54.990Z,96455.53
2022-08-01T10:30:07.445Z,96457.06
2022-08-01T10:31:19.300Z,96467.81
2022-08-01T10:32:33.656Z,96466.88
2022-08-01T10:33:52.384Z,96451.22
2022-08-01T10:34:55.993Z,96461.03
2022-08-01T10:35:58.549Z,96456.72
2022-08-01T10:37:03.251Z,96471.13
2022-08-01T10:38:10.882Z,96462.06
2022-08-01T10:39:15.871Z,96452.72
2022-08-01T10:40:30.774Z,96461.28
2022-08-01T10:41:34.479Z,96455.25
2022-08-01T10:42:36.865Z,96460.00
2022-08-01T10:43:38.532Z,96462.78
2022-08-01T10:44:41.574Z,96465.81
2022-08-01T10:45:46.220Z,96459.69
2022-08-01T10:46:52.779Z,96461.91
2022-08-01T10:48:05.340Z,96463.13
2022-08-01T10:49:16.498Z,96454.41
2022-08-01T10:50:33.976Z,96453.38
2022-08-01T10:51:52.988Z,96451.69
2022-08-01T10:53:23.989Z,96446.91
2022-08-01T10:54:39.848Z,96459.81
2022-08-01T10:55:57.069Z,96449.13
2022-08-01T10:57:01.494Z,96448.78
2022-08-01T10:58:09.232Z,96450.94
2022-08-01T10:59:49.859Z,96450.78
2022-08-01T11:01:16.114Z,96451.41
2022-08-01T11:02:32.191Z,96450.91
2022-08-01T11:03:56.128Z,96446.00
2022-08-01T11:05:20.657Z,96452.13
2022-08-01T11:06:36.331Z,96448.00
2022-08-01T11:07:49.962Z,96444.78
2022-08-01T11:08:53.379Z,96440.50
2022-08-01T11:10:19.812Z,96439.28
2022-08-01T11:11:25.547Z,96418.59
2022-08-01T11:12:40.296Z,96438.66
2022-08-01T11:14:01.829Z,96431.59
2022-08-01T11:15:03.597Z,96437.72
2022-08-01T11:16:31.274Z,96437.75
2022-08-01T11:17:38.155Z,96429.63
2022-08-01T11:18:51.764Z,96435.75
2022-08-01T11:20:10.423Z,96428.56
2022-08-01T11:21:59.347Z,96429.13
2022-08-01T11:22:53.536Z,96425.63
2022-08-01T11:23:57.757Z,96423.00
2022-08-01T11:25:01.274Z,96422.69
2022-08-01T11:26:05.894Z,96423.91
2022-08-01T11:27:23.556Z,96419.63
2022-08-01T11:28:32.625Z,96419.66
2022-08-01T11:29:36.649Z,96420.13
2022-08-01T11:30:38.737Z,96421.50
2022-08-01T11:31:41.883Z,96418.28
2022-08-01T11:33:10.239Z,96423.34
2022-08-01T11:34:13.317Z,96406.47
2022-08-01T11:35:18.018Z,96419.94
2022-08-01T11:36:55.992Z,96403.56
2022-08-01T11:37:45.461Z,96409.53
2022-08-01T11:38:47.074Z,96411.38
2022-08-01T11:40:27.826Z,96413.19
2022-08-01T11:41:38.442Z,96407.25
2022-08-01T11:42:40.998Z,96409.06
2022-08-01T11:44:05.650Z,96408.94
2022-08-01T11:45:13.322Z,96403.72
2022-08-01T11:46:17.689Z,96408.63
2022-08-01T11:47:21.242Z,96409.69
2022-08-01T11:48:27.891Z,96399.72
2022-08-01T11:49:39.288Z,96404.78
2022-08-01T11:50:42.220Z,96409.06
2022-08-01T11:51:44.558Z,96404.31
2022-08-01T11:52:47.208Z,96411.66
2022-08-01T11:53:50.441Z,96404.31
2022-08-01T11:54:59.249Z,96401.59
2022-08-01T11:56:00.994Z,96408.44
2022-08-01T11:57:09.869Z,96410.72
2022-08-01T11:58:22.388Z,96402.41
2022-08-01T11:59:38.343Z,96408.69
2022-08-01T12:00:50.733Z,96410.38
2022-08-01T12:01:52.589Z,96411.56
2022-08-01T12:03:07.720Z,96408.78
2022-08-01T12:04:09.349Z,96404.34
2022-08-01T12:05:14.086Z,96399.41
2022-08-01T12:06:28.204Z,96402.63
2022-08-01T12:07:31.299Z,96401.72
2022-08-01T12:08:35.343Z,96395.88
2022-08-01T12:09:36.931Z,96402.94
2022-08-01T12:10:47.204Z,96398.63
2022-08-01T12:11:51.781Z,96396.84
2022-08-01T12:12:55.635Z,96400.38
2022-08-01T12:13:57.520Z,96399.97
2022-08-01T12:15:05.903Z,96391.72
2022-08-01T12:16:08.917Z,96396.94
2022-08-01T12:17:10.574Z,96391.75
2022-08-01T12:18:14.008Z,96388.69
2022-08-01T12:19:23.187Z,96394.84
2022-08-01T12:20:29.778Z,96389.59
2022-08-01T12:21:32.119Z,96392.06
2022-08-01T12:22:34.281Z,96392.22
2022-08-01T12:23:35.873Z,96398.78
2022-08-01T12:24:39.610Z,96390.66
2022-08-01T12:25:42.054Z,96392.66
2022-08-01T12:26:43.742Z,96389.56
2022-08-01T12:27:48.055Z,96382.06
2022-08-01T12:28:49.600Z,96393.56
2022-08-01T12:29:51.227Z,96378.19
2022-08-01T12:30:53.097Z,96377.22
2022-08-01T12:31:54.740Z,96382.88
2022-08-01T12:32:56.959Z,96379.03
2022-08-01T12:33:58.552Z,96378.13
2022-08-01T12:35:32.926Z,96377.78
2022-08-01T12:36:35.302Z,96376.41
2022-08-01T12:37:47.696Z,96380.13
2022-08-01T12:38:54.044Z,96383.34
2022-08-01T12:39:56.661Z,96379.25
2022-08-01T12:40:58.989Z,96373.56
2022-08-01T12:42:01.173Z,96378.31
2022-08-01T12:43:05.406Z,96370.03
2022-08-01T12:44:16.060Z,96375.09
2022-08-01T12:45:20.905Z,96365.88
2022-08-01T12:46:22.773Z,96359.56
2022-08-01T12:47:24.957Z,96362.16
2022-08-01T12:48:27.828Z,96351.75
2022-08-01T12:49:29.887Z,96360.16
2022-08-01T12:50:33.044Z,96362.81
2022-08-01T12:51:36.123Z,96366.19
2022-08-01T12:52:38.426Z,96358.16
2022-08-01T12:53:41.743Z,96352.31
2022-08-01T12:55:09.559Z,96349.25
2022-08-01T12:56:12.092Z,96356.63